Time;durP1;ratioP1;P1;durP2;ratioP2;P2;SDS_P1;SDS_P2;PMS_P1;PMS_P2;Temp;Humidity;BMP_temperature;BMP_pressure;BME280_temperature;BME280_humidity;BME280_pressure;Samples;Min_cycle;Max_cycle;Signal;HPM_P1;HPM_P2
2021/04/28 00:00:37;;;;;;;13.60;6.25;;;;;;;11.20;100.00;94206.72;10409271;28;20104;-76
2021/04/28 00:05:38;;;;;;;11.88;6.80;;;;;;;11.16;100.00;94209.19;10408592;28;20058;-76
2021/04/28 00:10:40;;;;;;;13.85;6.85;;;;;;;11.13;100.00;94201.69;10408014;28;20112;-76
2021/04/28 00:15:45;;;;;;;11.50;6.47;;;;;;;10.94;100.00;94207.84;10408501;28;20411;-76
2021/04/28 00:20:47;;;;;;;11.98;6.68;;;;;;;10.93;100.00;94218.91;10419458;28;20033;-75
2021/04/28 00:25:48;;;;;;;9.10;6.32;;;;;;;10.84;100.00;94208.00;10411459;28;20033;-75
2021/04/28 00:30:48;;;;;;;10.43;6.38;;;;;;;10.78;100.00;94215.28;10407937;28;20032;-76
2021/04/28 00:35:49;;;;;;;12.05;6.40;;;;;;;10.69;100.00;94211.66;10408240;28;20025;-76
2021/04/28 00:40:49;;;;;;;11.77;7.03;;;;;;;10.60;100.00;94206.13;10407815;28;20488;-76
2021/04/28 00:45:50;;;;;;;10.75;6.43;;;;;;;10.53;100.00;94208.31;10407485;28;20541;-76
2021/04/28 00:50:51;;;;;;;10.63;7.25;;;;;;;10.45;100.00;94221.59;10407912;28;20037;-76
2021/04/28 00:55:54;;;;;;;16.52;6.53;;;;;;;10.41;100.00;94219.47;10407637;28;20041;-76
2021/04/28 01:00:55;;;;;;;10.60;6.80;;;;;;;10.42;100.00;94218.41;10407518;28;20631;-76
2021/04/28 01:05:58;;;;;;;16.10;7.80;;;;;;;10.46;100.00;94217.81;10407581;28;20361;-76
2021/04/28 01:10:59;;;;;;;13.70;6.68;;;;;;;10.59;100.00;94217.13;10407375;28;20026;-76
2021/04/28 01:15:59;;;;;;;14.63;7.25;;;;;;;10.54;100.00;94206.44;10406915;28;20021;-76
2021/04/28 01:21:00;;;;;;;14.65;7.47;;;;;;;10.61;100.00;94206.91;10409672;28;20198;-76
2021/04/28 01:26:01;;;;;;;11.98;6.97;;;;;;;10.57;100.00;94198.59;10415215;28;20353;-76
2021/04/28 01:31:11;;;;;;;12.02;5.97;;;;;;;10.56;100.00;94197.03;10414977;28;20052;-76
2021/04/28 01:36:27;;;;;;;10.40;6.30;;;;;;;10.53;100.00;94197.56;10414848;28;20029;-76
2021/04/28 01:41:28;;;;;;;8.98;6.05;;;;;;;10.44;100.00;94193.94;10414608;28;20137;-76
2021/04/28 01:46:29;;;;;;;10.98;6.45;;;;;;;10.40;100.00;94192.91;10414398;28;20050;-76
2021/04/28 01:51:31;;;;;;;11.15;6.35;;;;;;;10.33;100.00;94187.81;10414323;28;20468;-76
2021/04/28 01:56:32;;;;;;;13.85;6.43;;;;;;;10.29;100.00;94200.22;10413911;28;20548;-76
2021/04/28 02:01:34;;;;;;;15.10;6.47;;;;;;;10.23;100.00;94201.38;10413963;28;20432;-76
2021/04/28 02:06:38;;;;;;;13.02;6.53;;;;;;;10.25;100.00;94193.81;10395932;28;20021;-76
2021/04/28 02:11:38;;;;;;;12.68;6.25;;;;;;;10.24;100.00;94190.34;10413086;28;20087;-76
2021/04/28 02:16:41;;;;;;;9.00;6.25;;;;;;;10.25;100.00;94197.28;10413103;28;20075;-76
2021/04/28 02:21:50;;;;;;;18.30;6.70;;;;;;;10.23;100.00;94194.09;10413229;28;20487;-77
2021/04/28 02:26:55;;;;;;;14.23;7.32;;;;;;;10.17;100.00;94197.94;10411664;28;20029;-76
2021/04/28 02:31:56;;;;;;;10.93;7.15;;;;;;;10.26;100.00;94195.44;10409896;28;20594;-76
2021/04/28 02:36:58;;;;;;;12.15;7.20;;;;;;;10.31;100.00;94197.25;10410980;28;20204;-76
2021/04/28 02:41:59;;;;;;;11.07;7.55;;;;;;;10.21;100.00;94204.34;10411295;28;20053;-76
2021/04/28 02:47:02;;;;;;;13.57;7.90;;;;;;;10.19;100.00;94203.81;10409867;28;20083;-76
2021/04/28 02:52:03;;;;;;;13.93;7.35;;;;;;;10.24;100.00;94205.63;10419169;28;20044;-76
2021/04/28 02:57:04;;;;;;;18.42;8.70;;;;;;;10.20;100.00;94207.28;10411233;28;20037;-76
2021/04/28 03:02:08;;;;;;;15.57;8.07;;;;;;;10.26;100.00;94219.59;10411217;28;20087;-76
2021/04/28 03:07:13;;;;;;;12.30;7.70;;;;;;;10.24;100.00;94221.75;10411371;28;20108;-76
2021/04/28 03:12:16;;;;;;;16.52;8.45;;;;;;;10.33;100.00;94228.13;10423354;28;20029;-76
2021/04/28 03:17:16;;;;;;;14.90;8.20;;;;;;;10.30;100.00;94231.38;10409127;28;20115;-76
2021/04/28 03:22:18;;;;;;;11.98;8.07;;;;;;;10.34;100.00;94245.03;10408210;28;20033;-76
2021/04/28 03:27:20;;;;;;;13.90;8.35;;;;;;;10.31;100.00;94257.16;10408619;28;20030;-77
2021/04/28 03:32:21;;;;;;;13.73;7.70;;;;;;;10.18;100.00;94255.13;10408573;28;20448;-76
2021/04/28 03:37:21;;;;;;;15.00;8.52;;;;;;;10.14;100.00;94260.25;10408452;28;20091;-77
2021/04/28 03:42:23;;;;;;;13.68;8.05;;;;;;;10.11;100.00;94254.66;10408325;28;20124;-76
2021/04/28 03:47:23;;;;;;;17.70;7.82;;;;;;;10.01;100.00;94264.38;10409041;28;20068;-77
2021/04/28 03:52:24;;;;;;;14.35;7.15;;;;;;;9.94;100.00;94266.59;10408205;28;20112;-77
2021/04/28 03:57:25;;;;;;;14.38;8.00;;;;;;;9.89;100.00;94275.50;10407194;28;20515;-76
2021/04/28 04:02:25;;;;;;;18.08;8.00;;;;;;;9.85;100.00;94282.50;10407498;28;20040;-77
2021/04/28 04:07:27;;;;;;;18.50;9.50;;;;;;;9.85;100.00;94274.44;10406502;28;20037;-76
2021/04/28 04:12:27;;;;;;;14.02;8.77;;;;;;;9.87;100.00;94279.53;10406357;28;20057;-77
2021/04/28 04:17:27;;;;;;;17.93;8.07;;;;;;;9.86;100.00;94281.41;10406249;28;20053;-76
2021/04/28 04:22:28;;;;;;;11.43;7.90;;;;;;;9.95;100.00;94291.53;10405914;28;20875;-76
2021/04/28 04:27:28;;;;;;;11.93;7.23;;;;;;;10.08;100.00;94290.91;10406052;28;20400;-77
2021/04/28 04:32:28;;;;;;;14.40;7.17;;;;;;;10.25;100.00;94303.94;10407681;28;20025;-76
2021/04/28 04:37:29;;;;;;;17.47;9.57;;;;;;;10.59;100.00;94308.47;10407285;28;20314;-76
2021/04/28 04:42:29;;;;;;;10.25;6.70;;;;;;;11.05;100.00;94307.22;10388975;28;20367;-76
2021/04/28 04:47:30;;;;;;;8.80;6.50;;;;;;;11.20;100.00;94298.16;10405674;28;20025;-76
2021/04/28 04:52:30;;;;;;;16.13;6.35;;;;;;;11.07;100.00;94321.97;10405431;28;20283;-76
2021/04/28 04:57:31;;;;;;;11.60;5.93;;;;;;;10.97;100.00;94321.28;10404569;28;20546;-76
2021/04/28 05:02:31;;;;;;;16.47;7.17;;;;;;;11.02;100.00;94324.72;10405088;28;20040;-75
2021/04/28 05:07:31;;;;;;;13.48;6.63;;;;;;;11.33;100.00;94331.63;10405540;28;20037;-76
2021/04/28 05:12:32;;;;;;;16.10;6.10;;;;;;;11.80;100.00;94311.94;10405507;28;20021;-76
2021/04/28 05:17:32;;;;;;;17.27;6.10;;;;;;;12.68;97.25;94305.16;10405374;28;20041;-77
2021/04/28 05:22:33;;;;;;;26.35;12.15;;;;;;;13.49;100.00;94302.03;10387199;28;20029;-76
2021/04/28 05:27:34;;;;;;;20.10;12.05;;;;;;;14.08;96.85;94319.41;10404733;28;20102;-77
2021/04/28 05:32:35;;;;;;;19.45;9.35;;;;;;;15.04;95.91;94326.28;10404816;28;20026;-77
2021/04/28 05:37:36;;;;;;;27.85;10.70;;;;;;;15.99;84.77;94328.78;10405058;28;20361;-77
2021/04/28 05:42:38;;;;;;;19.27;9.20;;;;;;;16.95;71.70;94327.97;10405761;28;20137;-77
2021/04/28 05:47:39;;;;;;;19.80;7.55;;;;;;;17.49;61.21;94301.09;10405647;28;20029;-77
2021/04/28 05:52:39;;;;;;;21.05;7.90;;;;;;;17.87;66.70;94272.25;10405465;28;20033;-77
2021/04/28 05:57:40;;;;;;;13.75;7.50;;;;;;;18.35;55.89;94273.66;10404749;28;20047;-77
2021/04/28 06:02:44;;;;;;;21.08;6.97;;;;;;;19.05;54.48;94272.19;10404897;28;20160;-77
2021/04/28 06:07:45;;;;;;;15.23;6.32;;;;;;;19.50;51.96;94292.31;10407289;28;20030;-77
2021/04/28 06:12:46;;;;;;;10.93;5.40;;;;;;;19.52;51.67;94279.13;10412489;28;20048;-78
2021/04/28 06:17:46;;;;;;;8.57;5.53;;;;;;;19.67;52.31;94277.63;10393780;28;20040;-77
2021/04/28 06:22:47;;;;;;;12.87;6.63;;;;;;;19.97;48.08;94278.97;10393601;28;20030;-78
2021/04/28 06:27:47;;;;;;;10.40;5.18;;;;;;;20.24;47.79;94286.78;10410472;28;20276;-78
2021/04/28 06:32:48;;;;;;;17.80;5.13;;;;;;;21.14;44.64;94273.63;10411467;28;20096;-77
2021/04/28 06:37:48;;;;;;;12.13;5.05;;;;;;;21.17;42.12;94294.00;10411756;28;20029;-79
2021/04/28 06:42:49;;;;;;;9.10;4.70;;;;;;;21.37;41.26;94302.28;10410660;28;20658;-77
2021/04/28 06:47:49;;;;;;;7.17;4.33;;;;;;;22.32;38.75;94296.66;10410661;28;20037;-77
2021/04/28 06:52:49;;;;;;;12.00;4.23;;;;;;;22.68;37.59;94297.41;10410864;28;20271;-77
2021/04/28 06:57:55;;;;;;;9.30;4.00;;;;;;;22.89;37.79;94299.00;10410041;28;20091;-77
2021/04/28 07:02:56;;;;;;;9.88;4.43;;;;;;;23.18;36.80;94297.59;10410178;28;20033;-77
2021/04/28 07:07:57;;;;;;;7.03;4.47;;;;;;;23.25;36.85;94296.94;10410052;28;20042;-76
2021/04/28 07:12:58;;;;;;;9.33;4.90;;;;;;;23.55;36.39;94296.25;10409373;28;20033;-76
2021/04/28 07:17:58;;;;;;;7.82;5.22;;;;;;;22.71;36.73;94301.38;10408146;28;20029;-76
2021/04/28 07:22:59;;;;;;;14.10;4.83;;;;;;;23.57;38.06;94302.16;10408546;28;20447;-76
2021/04/28 07:27:59;;;;;;;13.47;4.67;;;;;;;24.09;36.41;94307.28;10408810;28;20037;-77
2021/04/28 07:32:59;;;;;;;11.53;5.00;;;;;;;24.70;34.66;94297.13;10409213;28;20350;-77
2021/04/28 07:38:00;;;;;;;7.60;4.23;;;;;;;24.90;34.45;94293.03;10409115;28;20529;-76
2021/04/28 07:43:02;;;;;;;7.93;4.53;;;;;;;24.58;35.03;94303.63;10408846;28;20100;-76
2021/04/28 07:48:08;;;;;;;5.63;3.97;;;;;;;24.88;34.64;94305.56;10408914;28;20037;-76
2021/04/28 07:53:09;;;;;;;7.32;5.05;;;;;;;25.81;33.52;94299.41;10408677;28;20037;-76
2021/04/28 07:58:09;;;;;;;9.40;4.43;;;;;;;25.68;33.41;94302.44;10408242;28;20038;-76
2021/04/28 08:03:11;;;;;;;7.88;4.38;;;;;;;25.45;33.55;94304.59;10408238;28;20133;-76
2021/04/28 08:08:11;;;;;;;13.25;4.35;;;;;;;26.06;33.58;94294.88;10409650;28;20029;-77
2021/04/28 08:13:12;;;;;;;12.80;4.37;;;;;;;25.70;33.33;94286.34;10409237;28;20022;-77
2021/04/28 08:18:12;;;;;;;6.03;4.25;;;;;;;26.37;33.29;94289.97;10408671;28;20033;-77
2021/04/28 08:23:13;;;;;;;8.40;4.53;;;;;;;26.20;32.36;94304.41;10408908;28;20035;-77
2021/04/28 08:28:13;;;;;;;6.40;3.45;;;;;;;27.17;31.70;94282.78;10408574;28;20465;-77
2021/04/28 08:33:14;;;;;;;10.00;4.10;;;;;;;27.29;31.52;94271.38;10406612;28;20033;-77
2021/04/28 08:38:14;;;;;;;9.70;3.92;;;;;;;27.41;31.16;94261.94;10406046;28;20045;-76
2021/04/28 08:43:15;;;;;;;5.97;3.33;;;;;;;27.69;31.21;94257.59;10404811;28;20060;-76
2021/04/28 08:48:16;;;;;;;7.05;3.25;;;;;;;28.33;30.51;94267.00;10388558;28;20287;-78
2021/04/28 08:53:18;;;;;;;11.35;4.07;;;;;;;29.04;30.17;94262.38;10413443;28;20029;-77
2021/04/28 08:58:20;;;;;;;13.10;4.13;;;;;;;28.55;29.19;94251.13;10410374;28;20041;-77
2021/04/28 09:03:20;;;;;;;8.82;3.70;;;;;;;29.10;29.00;94251.69;10408058;28;20033;-79
2021/04/28 09:08:26;;;;;;;7.40;3.70;;;;;;;27.89;30.40;94257.19;10408007;28;20492;-78
2021/04/28 09:13:26;;;;;;;5.60;3.38;;;;;;;28.45;29.56;94263.81;10407908;28;20036;-78
2021/04/28 09:18:35;;;;;;;6.87;3.73;;;;;;;28.22;29.91;94244.91;10407987;28;20040;-78
2021/04/28 09:23:37;;;;;;;7.28;3.50;;;;;;;27.99;30.68;94250.88;10407531;28;20028;-76
2021/04/28 09:28:38;;;;;;;5.88;3.13;;;;;;;28.72;29.71;94237.63;10407524;28;20457;-76
2021/04/28 09:33:41;;;;;;;4.97;3.27;;;;;;;28.56;29.34;94229.78;10407022;28;20107;-77
2021/04/28 09:38:53;;;;;;;5.47;3.28;;;;;;;29.08;29.10;94216.13;10406799;28;20034;-76
2021/04/28 09:43:54;;;;;;;10.95;3.38;;;;;;;29.42;28.77;94206.41;10411810;28;20041;-76
2021/04/28 09:48:59;;;;;;;7.97;3.80;;;;;;;29.63;28.69;94208.19;10414530;28;20045;-76
2021/04/28 09:54:09;;;;;;;4.95;2.95;;;;;;;30.00;27.94;94212.22;10414513;28;20029;-77
2021/04/28 09:59:09;;;;;;;6.40;3.17;;;;;;;30.88;27.40;94202.47;10414748;28;20037;-77
2021/04/28 10:04:10;;;;;;;9.38;3.03;;;;;;;31.76;26.46;94203.56;10414290;28;20036;-77
2021/04/28 10:09:43;;;;;;;5.07;3.00;;;;;;;30.15;27.34;94199.78;10414250;28;20027;-77
2021/04/28 10:14:43;;;;;;;6.65;3.15;;;;;;;29.01;28.29;94190.47;10381214;28;20042;-76
2021/04/28 10:19:47;;;;;;;12.27;3.30;;;;;;;29.76;27.44;94181.56;10413590;28;20021;-76
2021/04/28 10:24:54;;;;;;;10.77;3.10;;;;;;;30.00;27.59;94188.09;10413137;28;20097;-77
2021/04/28 10:29:55;;;;;;;4.28;3.15;;;;;;;28.45;29.01;94172.59;10413310;28;20123;-78
2021/04/28 10:35:00;;;;;;;7.55;3.03;;;;;;;30.66;27.10;94168.72;10394547;28;20017;-77
2021/04/28 10:40:08;;;;;;;10.20;3.45;;;;;;;30.84;26.60;94157.38;10411869;28;20473;-76
2021/04/28 10:45:11;;;;;;;6.45;2.97;;;;;;;30.85;26.38;94165.28;10411475;28;20049;-77
2021/04/28 10:50:23;;;;;;;7.53;2.85;;;;;;;30.12;27.23;94164.56;10411948;28;20033;-77
2021/04/28 10:55:35;;;;;;;8.43;3.08;;;;;;;31.06;27.07;94152.28;10411112;28;20036;-78
2021/04/28 11:00:36;;;;;;;3.83;2.42;;;;;;;29.73;26.95;94164.97;10393716;28;20039;-77
2021/04/28 11:05:37;;;;;;;6.95;2.67;;;;;;;29.12;28.11;94147.69;10393513;28;20119;-78
2021/04/28 11:10:37;;;;;;;9.65;3.45;;;;;;;27.09;30.17;94146.81;10411843;28;20037;-76
2021/04/28 11:15:50;;;;;;;7.50;3.80;;;;;;;25.71;32.87;94141.25;10411976;28;20378;-76
2021/04/28 11:21:11;;;;;;;12.88;3.88;;;;;;;23.81;35.13;94135.53;10411297;28;20029;-77
2021/04/28 11:26:31;;;;;;;9.63;4.40;;;;;;;22.72;37.77;94135.06;10411075;28;20034;-77
2021/04/28 11:31:41;;;;;;;7.05;4.00;;;;;;;21.88;39.81;94132.75;10410957;28;20033;-76
2021/04/28 11:36:52;;;;;;;12.73;4.43;;;;;;;21.18;41.54;94131.59;10410598;28;20036;-76
2021/04/28 11:41:53;;;;;;;8.02;4.28;;;;;;;21.06;41.90;94137.19;10409809;28;20033;-77
2021/04/28 11:46:53;;;;;;;9.13;4.53;;;;;;;20.97;42.03;94124.50;10410365;28;20026;-77
2021/04/28 11:51:57;;;;;;;6.30;4.20;;;;;;;20.98;42.61;94108.91;10409587;28;20099;-77
2021/04/28 11:56:58;;;;;;;7.00;4.00;;;;;;;20.78;42.86;94092.44;10409861;28;20412;-77
2021/04/28 12:02:09;;;;;;;7.43;4.22;;;;;;;21.13;43.06;94086.22;10410374;28;20025;-77
2021/04/28 12:07:14;;;;;;;8.52;4.47;;;;;;;21.37;43.05;94089.84;10391231;28;20025;-77
2021/04/28 12:12:31;;;;;;;6.88;4.00;;;;;;;21.53;42.49;94081.66;10409260;28;20045;-77
2021/04/28 12:17:35;;;;;;;7.97;4.00;;;;;;;21.05;41.84;94081.75;10409467;28;20535;-77
2021/04/28 12:22:36;;;;;;;5.65;3.97;;;;;;;21.37;42.25;94072.69;10408932;28;20025;-77
2021/04/28 12:27:39;;;;;;;8.25;3.78;;;;;;;21.30;41.51;94068.63;10391246;28;20504;-77
2021/04/28 12:32:40;;;;;;;7.28;3.30;;;;;;;21.10;41.69;94080.69;10408770;28;20082;-77
2021/04/28 12:37:57;;;;;;;10.55;3.88;;;;;;;20.82;42.76;94084.34;10408708;28;20588;-77
2021/04/28 12:42:58;;;;;;;8.25;4.00;;;;;;;20.71;44.07;94066.91;10408186;28;20100;-77
2021/04/28 12:48:12;;;;;;;9.93;4.32;;;;;;;20.62;44.05;94051.50;10408334;28;20059;-78
2021/04/28 12:53:18;;;;;;;10.55;3.90;;;;;;;20.84;43.22;94046.53;10390465;28;20049;-77
2021/04/28 12:58:21;;;;;;;8.52;3.90;;;;;;;20.85;44.09;94041.84;10408058;28;20029;-77
2021/04/28 13:03:26;;;;;;;8.13;4.45;;;;;;;20.59;43.25;94035.00;10408093;28;20032;-77
2021/04/28 13:08:38;;;;;;;6.82;4.03;;;;;;;20.35;44.55;94019.63;10408697;28;20026;-77
2021/04/28 13:14:07;;;;;;;8.80;3.88;;;;;;;20.12;45.26;94006.59;10408193;28;20026;-78
2021/04/28 13:19:11;;;;;;;12.32;4.82;;;;;;;20.27;45.78;94024.91;10414060;28;20408;-77
2021/04/28 13:24:14;;;;;;;10.18;4.63;;;;;;;20.41;45.74;94019.00;10416031;28;20041;-78
2021/04/28 13:29:15;;;;;;;8.82;4.88;;;;;;;20.41;45.97;94010.03;10415592;28;20033;-76
2021/04/28 13:34:26;;;;;;;7.67;4.53;;;;;;;20.25;45.41;93991.72;10415341;28;20026;-77
2021/04/28 13:39:30;;;;;;;6.75;5.15;;;;;;;20.16;46.64;93991.09;10415356;28;20592;-77
2021/04/28 13:44:33;;;;;;;11.25;5.72;;;;;;;20.32;48.97;93970.06;10397175;28;20056;-76
2021/04/28 13:49:33;;;;;;;10.07;4.95;;;;;;;20.26;47.63;93987.06;10414399;28;20091;-77
2021/04/28 13:54:33;;;;;;;8.20;5.22;;;;;;;19.86;50.55;94002.44;10396670;28;20037;-76
2021/04/28 13:59:34;;;;;;;10.10;7.27;;;;;;;19.49;52.00;93991.69;10414558;28;20037;-76
2021/04/28 14:04:34;;;;;;;7.93;5.37;;;;;;;19.18;53.32;93993.19;10395190;28;20399;-77
2021/04/28 14:09:34;;;;;;;7.27;5.63;;;;;;;18.68;56.66;93999.88;10413953;28;20522;-77
2021/04/28 14:14:35;;;;;;;9.40;6.00;;;;;;;18.82;55.86;93996.78;10413331;28;20400;-77
2021/04/28 14:19:35;;;;;;;11.55;5.35;;;;;;;19.11;54.89;94006.63;10412009;28;20439;-77
2021/04/28 14:24:36;;;;;;;9.97;6.37;;;;;;;18.84;53.39;94010.84;10413379;28;20037;-77
2021/04/28 14:29:36;;;;;;;11.17;5.97;;;;;;;18.28;56.75;94015.78;10393505;28;20140;-76
2021/04/28 14:34:37;;;;;;;9.77;5.88;;;;;;;18.22;56.42;94029.94;10412654;28;20038;-76
2021/04/28 14:39:37;;;;;;;21.92;5.60;;;;;;;18.11;55.18;94035.00;10394909;28;20048;-77
2021/04/28 14:44:38;;;;;;;9.40;6.30;;;;;;;18.08;55.59;94046.56;10412264;28;20049;-76
2021/04/28 14:49:38;;;;;;;9.10;5.18;;;;;;;17.95;54.95;94066.72;10412663;28;20029;-77
2021/04/28 14:54:39;;;;;;;9.10;5.80;;;;;;;17.86;56.37;94092.03;10413106;28;20079;-77
2021/04/28 14:59:39;;;;;;;13.52;8.18;;;;;;;17.73;57.63;94106.72;10412275;28;20373;-77
2021/04/28 15:04:39;;;;;;;13.80;7.00;;;;;;;17.49;60.10;94145.44;10412169;28;20116;-77
2021/04/28 15:09:40;;;;;;;10.33;6.57;;;;;;;17.45;63.10;94136.34;10409940;28;20294;-78
2021/04/28 15:14:40;;;;;;;8.60;5.85;;;;;;;17.18;67.05;94160.97;10411326;28;20021;-77
2021/04/28 15:19:40;;;;;;;12.03;6.47;;;;;;;16.92;71.64;94177.41;10411059;28;20031;-77
2021/04/28 15:24:41;;;;;;;13.80;7.47;;;;;;;16.78;75.25;94212.88;10410176;28;20044;-77
2021/04/28 15:29:41;;;;;;;11.75;7.82;;;;;;;16.61;78.28;94188.53;10410412;28;20763;-77
2021/04/28 15:34:43;;;;;;;14.07;8.30;;;;;;;16.67;75.48;94170.94;10409202;28;20033;-77
2021/04/28 15:39:43;;;;;;;10.95;7.90;;;;;;;16.70;75.22;94181.13;10409048;28;20397;-77
2021/04/28 15:44:44;;;;;;;13.03;7.27;;;;;;;16.59;77.67;94194.28;10408829;28;20061;-78
2021/04/28 15:49:44;;;;;;;12.27;7.77;;;;;;;16.58;81.74;94227.97;10408147;28;20601;-79
2021/04/28 15:54:44;;;;;;;16.30;9.57;;;;;;;16.14;100.00;94254.34;10407116;28;20280;-78
2021/04/28 15:59:45;;;;;;;17.17;10.03;;;;;;;15.69;100.00;94244.59;10407326;28;20291;-77
2021/04/28 16:04:47;;;;;;;12.63;9.80;;;;;;;15.26;100.00;94259.63;10379155;28;20029;-81
2021/04/28 16:09:47;;;;;;;18.33;11.18;;;;;;;14.73;100.00;94268.66;10396919;28;21015;-81
2021/04/28 16:14:48;;;;;;;24.87;12.27;;;;;;;14.32;100.00;94279.38;10408267;28;20025;-80
2021/04/28 16:19:48;;;;;;;21.10;13.07;;;;;;;13.49;100.00;94302.03;10396925;28;20029;-79
2021/04/28 16:24:48;;;;;;;31.97;12.90;;;;;;;13.18;100.00;94307.22;10367609;28;20028;-80
2021/04/28 16:29:49;;;;;;;31.30;14.13;;;;;;;13.41;100.00;94289.25;10367567;28;20088;-80
2021/04/28 16:34:49;;;;;;;31.13;13.67;;;;;;;12.83;100.00;94288.72;10368344;28;20030;-80
2021/04/28 16:39:49;;;;;;;26.50;16.37;;;;;;;12.30;100.00;94294.50;10367949;28;20117;-79
2021/04/28 16:44:51;;;;;;;28.65;17.20;;;;;;;12.09;100.00;94313.66;10367518;28;20049;-79
2021/04/28 16:49:53;;;;;;;27.50;17.48;;;;;;;11.62;100.00;94342.31;10368910;28;20462;-80
2021/04/28 16:54:53;;;;;;;36.70;19.73;;;;;;;11.36;100.00;94363.34;10368154;28;20041;-79
2021/04/28 16:59:53;;;;;;;46.23;21.90;;;;;;;11.23;100.00;94378.28;10367379;28;20092;-78
2021/04/28 17:04:54;;;;;;;35.80;19.97;;;;;;;11.48;100.00;94403.31;10367526;28;20683;-79
2021/04/28 17:09:54;;;;;;;36.73;20.00;;;;;;;11.51;100.00;94413.50;10367137;28;20515;-80
2021/04/28 17:14:54;;;;;;;35.28;20.40;;;;;;;11.73;100.00;94421.84;10364621;28;20405;-78
2021/04/28 17:20:00;;;;;;;28.50;17.47;;;;;;;11.80;100.00;94406.16;10364852;28;20044;-77
2021/04/28 17:25:00;;;;;;;35.38;18.15;;;;;;;11.62;100.00;94423.06;10366798;28;20091;-77
2021/04/28 17:30:01;;;;;;;33.80;20.07;;;;;;;11.43;100.00;94396.91;10365731;28;20092;-77
2021/04/28 17:35:03;;;;;;;36.42;20.58;;;;;;;10.80;100.00;94389.75;10366588;28;20075;-79
2021/04/28 17:40:05;;;;;;;41.17;23.20;;;;;;;10.83;100.00;94288.91;10379143;28;20059;-78
2021/04/28 17:45:08;;;;;;;51.20;27.70;;;;;;;10.68;100.00;94287.19;10394390;28;20121;-80
2021/04/28 17:50:10;;;;;;;44.42;27.35;;;;;;;10.69;100.00;94265.41;10407312;28;20033;-79
2021/04/28 17:55:10;;;;;;;47.20;26.90;;;;;;;10.67;100.00;94267.56;10404746;28;20030;-79
2021/04/28 18:00:12;;;;;;;49.35;28.83;;;;;;;10.70;100.00;94293.06;10366065;28;20475;-78
2021/04/28 18:05:14;;;;;;;47.40;27.55;;;;;;;10.87;100.00;94303.38;10372383;28;20033;-81
2021/04/28 18:10:16;;;;;;;38.25;24.48;;;;;;;11.01;100.00;94300.81;10358104;28;20064;-81
2021/04/28 18:15:17;;;;;;;40.95;23.88;;;;;;;10.96;100.00;94296.28;10374288;28;20568;-81
2021/04/28 18:20:18;;;;;;;40.95;25.85;;;;;;;11.01;100.00;94298.94;10351116;28;20061;-80
2021/04/28 18:25:19;;;;;;;45.95;24.70;;;;;;;11.09;100.00;94282.16;10372587;28;20030;-78
2021/04/28 18:30:21;;;;;;;40.83;25.58;;;;;;;11.03;100.00;94301.34;10372751;28;20040;-79
2021/04/28 18:35:22;;;;;;;46.60;28.33;;;;;;;11.05;100.00;94307.22;10372477;28;20104;-79
2021/04/28 18:40:22;;;;;;;39.00;25.17;;;;;;;11.07;100.00;94300.47;10372221;28;20038;-78
2021/04/28 18:45:23;;;;;;;42.57;25.57;;;;;;;11.17;100.00;94320.28;10371635;28;20045;-78
2021/04/28 18:50:25;;;;;;;41.65;27.70;;;;;;;11.15;100.00;94328.63;10371284;28;20297;-79
2021/04/28 18:55:25;;;;;;;38.90;22.48;;;;;;;11.17;100.00;94328.34;10389775;28;20476;-78
2021/04/28 19:00:26;;;;;;;36.17;22.93;;;;;;;11.22;100.00;94326.38;10412400;28;20078;-79
2021/04/28 19:05:26;;;;;;;38.22;21.17;;;;;;;11.26;100.00;94315.84;10411840;28;20040;-79
2021/04/28 19:10:27;;;;;;;36.30;22.73;;;;;;;11.26;100.00;94310.44;10412619;28;20034;-79
2021/04/28 19:15:28;;;;;;;38.15;26.25;;;;;;;11.14;100.00;94318.94;10411026;28;20354;-79
2021/04/28 19:20:28;;;;;;;42.80;25.35;;;;;;;10.97;100.00;94332.84;10394011;28;20083;-80
2021/04/28 19:25:29;;;;;;;42.60;23.47;;;;;;;11.00;100.00;94326.09;10411520;28;20550;-81
2021/04/28 19:30:29;;;;;;;34.83;21.10;;;;;;;10.93;100.00;94329.13;10411212;28;20052;-80
2021/04/28 19:35:29;;;;;;;29.33;20.73;;;;;;;10.95;100.00;94351.16;10410988;28;20272;-79
2021/04/28 19:40:30;;;;;;;40.58;23.15;;;;;;;11.03;100.00;94358.59;10410617;28;20299;-79
2021/04/28 19:45:30;;;;;;;35.75;25.25;;;;;;;11.02;100.00;94370.41;10410332;28;20115;-80
2021/04/28 19:50:31;;;;;;;48.93;23.73;;;;;;;11.10;100.00;94377.88;10410436;28;20057;-80
2021/04/28 19:55:31;;;;;;;40.07;27.17;;;;;;;11.03;100.00;94374.72;10404332;28;20276;-80
2021/04/28 20:00:32;;;;;;;42.90;28.25;;;;;;;10.96;100.00;94389.59;10368957;28;20062;-80
2021/04/28 20:05:32;;;;;;;47.50;29.17;;;;;;;10.97;100.00;94392.00;10368185;28;20030;-80
2021/04/28 20:10:33;;;;;;;57.63;33.53;;;;;;;10.97;100.00;94400.06;10368711;28;20026;-76
2021/04/28 20:15:33;;;;;;;66.07;37.20;;;;;;;10.92;100.00;94402.81;10369766;28;20113;-82
2021/04/28 20:20:34;;;;;;;60.00;36.15;;;;;;;10.87;100.00;94394.78;10370716;28;20802;-81
2021/04/28 20:25:36;;;;;;;63.50;35.88;;;;;;;10.87;100.00;94409.03;10364887;28;20057;-81
2021/04/28 20:30:37;;;;;;;56.05;32.75;;;;;;;10.96;100.00;94419.19;10352043;28;20037;-81
2021/04/28 20:35:38;;;;;;;39.30;24.88;;;;;;;10.90;100.00;94423.81;10368975;28;20054;-81
2021/04/28 20:40:39;;;;;;;35.35;23.20;;;;;;;10.88;100.00;94423.28;10371431;28;20034;-83
2021/04/28 20:45:39;;;;;;;44.70;27.40;;;;;;;10.74;100.00;94423.94;10372039;28;20050;-82
2021/04/28 20:50:40;;;;;;;37.90;21.75;;;;;;;10.48;100.00;94444.81;10372158;28;20040;-82
2021/04/28 20:55:41;;;;;;;44.10;25.55;;;;;;;10.52;100.00;94428.94;10371980;28;20441;-82
2021/04/28 21:00:41;;;;;;;38.53;23.58;;;;;;;10.59;100.00;94445.53;10371726;28;20034;-82
2021/04/28 21:05:43;;;;;;;36.80;22.73;;;;;;;10.59;100.00;94434.78;10371254;28;20466;-82
2021/04/28 21:10:45;;;;;;;37.35;22.65;;;;;;;10.63;100.00;94438.50;10369983;28;20291;-81
2021/04/28 21:15:46;;;;;;;35.13;20.45;;;;;;;10.53;100.00;94438.59;10370239;28;20022;-81
2021/04/28 21:20:46;;;;;;;38.78;24.50;;;;;;;10.56;100.00;94454.97;10371392;28;20037;-80
2021/04/28 21:25:47;;;;;;;37.20;24.23;;;;;;;10.75;100.00;94455.09;10370821;28;20041;-81
2021/04/28 21:30:47;;;;;;;30.47;20.03;;;;;;;10.76;100.00;94445.94;10371305;28;20068;-81
2021/04/28 21:35:48;;;;;;;30.10;21.30;;;;;;;10.78;100.00;94440.28;10371354;28;20133;-81
2021/04/28 21:40:48;;;;;;;43.33;23.13;;;;;;;10.79;100.00;94431.16;10378063;28;20034;-81
2021/04/28 21:45:51;;;;;;;38.40;22.83;;;;;;;10.70;100.00;94444.41;10378255;28;20168;-80
2021/04/28 21:50:52;;;;;;;35.15;22.63;;;;;;;10.65;100.00;94446.31;10377177;28;20029;-80
2021/04/28 21:55:53;;;;;;;38.03;24.27;;;;;;;10.59;100.00;94448.22;10376704;28;20040;-82
2021/04/28 22:00:53;;;;;;;36.72;24.67;;;;;;;10.70;100.00;94455.16;10372309;28;20112;-81
2021/04/28 22:05:53;;;;;;;35.00;22.93;;;;;;;10.71;100.00;94445.97;10377166;28;20117;-81
2021/04/28 22:10:54;;;;;;;38.43;23.70;;;;;;;10.60;100.00;94452.50;10360419;28;20084;-81
2021/04/28 22:15:54;;;;;;;31.53;22.53;;;;;;;10.67;100.00;94452.22;10376212;28;20139;-75
2021/04/28 22:20:57;;;;;;;33.60;24.00;;;;;;;10.74;100.00;94455.38;10374547;28;20033;-82
2021/04/28 22:25:58;;;;;;;38.15;25.08;;;;;;;10.82;100.00;94460.16;10377571;28;20292;-81
2021/04/28 22:31:00;;;;;;;33.85;25.05;;;;;;;10.89;100.00;94467.91;10359223;28;20782;-81
2021/04/28 22:36:00;;;;;;;37.95;24.90;;;;;;;10.91;100.00;94466.53;10376815;28;20373;-80
2021/04/28 22:41:00;;;;;;;40.93;27.30;;;;;;;10.82;100.00;94462.84;10376891;28;20030;-80
2021/04/28 22:46:01;;;;;;;68.47;32.07;;;;;;;10.82;100.00;94456.66;10374471;28;20332;-80
2021/04/28 22:51:02;;;;;;;54.88;33.08;;;;;;;10.75;100.00;94452.41;10375867;28;20048;-81
2021/04/28 22:56:02;;;;;;;59.67;34.17;;;;;;;10.61;100.00;94435.31;10376118;28;20033;-81